createdAt,value
2018-10-09T00:01:34.547Z,9.90
2018-10-09T00:04:15.639Z,9.80
2018-10-09T00:06:56.365Z,9.70
2018-10-09T00:09:37.170Z,9.60
2018-10-09T00:12:18.556Z,9.50
2018-10-09T00:14:59.705Z,9.50
2018-10-09T00:17:40.508Z,9.40
2018-10-09T00:20:25.929Z,9.40
2018-10-09T00:23:07.528Z,9.30
2018-10-09T00:25:48.605Z,9.30
2018-10-09T00:28:29.465Z,9.40
2018-10-09T00:31:10.725Z,9.40
2018-10-09T00:33:51.876Z,9.30
2018-10-09T00:36:33.506Z,9.30
2018-10-09T00:39:14.719Z,9.20
2018-10-09T00:41:55.862Z,9.10
2018-10-09T00:44:37.290Z,9.10
2018-10-09T00:47:18.461Z,9.00
2018-10-09T00:50:00.005Z,9.00
2018-10-09T00:52:41.106Z,9.00
2018-10-09T00:55:21.979Z,9.10
2018-10-09T00:58:04.313Z,9.00
2018-10-09T01:00:45.505Z,9.00
2018-10-09T01:03:26.531Z,9.00
2018-10-09T01:06:07.642Z,8.90
2018-10-09T01:08:48.974Z,8.90
2018-10-09T01:11:30.141Z,8.90
2018-10-09T01:14:11.348Z,8.90
2018-10-09T01:16:52.682Z,9.00
2018-10-09T01:19:34.405Z,9.00
2018-10-09T01:22:15.770Z,9.10
2018-10-09T01:24:56.911Z,9.10
2018-10-09T01:27:38.297Z,9.20
2018-10-09T01:30:19.464Z,9.30
2018-10-09T01:33:00.967Z,9.50
2018-10-09T01:35:41.868Z,9.60
2018-10-09T01:38:22.658Z,9.70
2018-10-09T01:41:03.635Z,9.80
2018-10-09T01:43:44.507Z,9.90
2018-10-09T01:46:25.935Z,10.00
2018-10-09T01:49:07.917Z,10.20
2018-10-09T01:51:49.360Z,10.00
2018-10-09T01:54:30.494Z,10.00
2018-10-09T01:57:11.403Z,10.00
2018-10-09T01:59:52.698Z,10.10
2018-10-09T02:02:34.477Z,10.20
2018-10-09T02:05:15.607Z,10.20
2018-10-09T02:07:56.830Z,10.20
2018-10-09T02:10:37.705Z,10.10
2018-10-09T02:13:18.483Z,10.00
2018-10-09T02:15:59.295Z,10.00
2018-10-09T02:18:40.343Z,9.90
2018-10-09T02:21:21.248Z,9.80
2018-10-09T02:24:03.083Z,9.90
2018-10-09T02:26:45.795Z,9.90
2018-10-09T02:29:27.997Z,9.90
2018-10-09T02:32:09.371Z,9.90
2018-10-09T02:34:50.593Z,10.00
2018-10-09T02:37:31.733Z,10.10
2018-10-09T02:40:13.421Z,10.00
2018-10-09T02:42:54.255Z,9.80
2018-10-09T02:45:35.177Z,9.70
2018-10-09T02:48:16.088Z,9.70
2018-10-09T02:50:57.938Z,9.70
2018-10-09T02:53:40.795Z,9.80
2018-10-09T02:56:21.710Z,9.70
2018-10-09T02:59:02.942Z,9.60
2018-10-09T03:01:44.152Z,9.70
2018-10-09T03:04:25.533Z,9.50
2018-10-09T03:07:06.420Z,9.40
2018-10-09T03:09:47.218Z,9.40
2018-10-09T03:12:28.779Z,9.30
2018-10-09T03:15:09.854Z,9.20
2018-10-09T03:17:50.750Z,9.20
2018-10-09T03:20:31.889Z,9.20
2018-10-09T03:23:13.184Z,9.40
2018-10-09T03:25:58.238Z,9.40
2018-10-09T03:28:39.745Z,9.50
2018-10-09T03:31:21.117Z,9.40
2018-10-09T03:34:02.335Z,9.30
2018-10-09T03:36:43.499Z,9.30
2018-10-09T03:39:24.656Z,9.40
2018-10-09T03:42:06.275Z,9.50
2018-10-09T03:44:47.435Z,9.40
2018-10-09T03:47:28.616Z,9.40
2018-10-09T03:50:09.731Z,9.30
2018-10-09T03:52:51.246Z,9.20
2018-10-09T03:55:32.065Z,9.30
2018-10-09T03:58:14.538Z,9.30
2018-10-09T04:00:55.719Z,9.20
2018-10-09T04:03:36.898Z,9.10
2018-10-09T04:06:17.664Z,9.00
2018-10-09T04:08:58.909Z,9.00
2018-10-09T04:11:40.155Z,8.90
2018-10-09T04:14:21.304Z,8.90
2018-10-09T04:17:02.500Z,8.80
2018-10-09T04:19:43.665Z,8.80
2018-10-09T04:22:24.815Z,8.80
2018-10-09T04:25:06.568Z,8.90
2018-10-09T04:27:48.134Z,8.90
2018-10-09T04:30:29.456Z,8.90
2018-10-09T04:33:11.067Z,8.80
2018-10-09T04:35:52.127Z,8.80
2018-10-09T04:38:33.288Z,8.70
2018-10-09T04:41:13.963Z,8.70
2018-10-09T04:43:54.841Z,8.70
2018-10-09T04:46:35.578Z,8.70
2018-10-09T04:49:16.557Z,8.60
2018-10-09T04:51:58.223Z,8.60
2018-10-09T04:54:39.241Z,8.50
2018-10-09T04:57:20.376Z,8.50
2018-10-09T05:00:01.128Z,8.40
2018-10-09T05:02:42.004Z,8.50
2018-10-09T05:05:22.765Z,8.70
2018-10-09T05:08:04.804Z,8.70
2018-10-09T05:10:45.779Z,8.70
2018-10-09T05:13:26.566Z,8.70
2018-10-09T05:16:07.478Z,8.70
2018-10-09T05:18:48.660Z,8.80
2018-10-09T05:21:29.403Z,9.00
2018-10-09T05:24:11.436Z,9.10
2018-10-09T05:26:52.664Z,9.20
2018-10-09T05:29:33.556Z,9.20
2018-10-09T05:32:14.648Z,9.10
2018-10-09T05:34:55.384Z,9.00
2018-10-09T05:37:36.203Z,9.00
2018-10-09T05:40:17.154Z,9.00
2018-10-09T05:42:58.202Z,9.10
2018-10-09T05:45:39.488Z,9.30
2018-10-09T05:48:20.356Z,9.40
2018-10-09T05:51:01.587Z,9.50
2018-10-09T05:53:42.757Z,9.60
2018-10-09T05:56:23.788Z,9.80
2018-10-09T05:59:04.987Z,9.80
2018-10-09T06:01:48.794Z,9.80
2018-10-09T06:04:29.601Z,10.00
2018-10-09T06:07:11.131Z,10.20
2018-10-09T06:09:52.734Z,10.30
2018-10-09T06:12:34.231Z,10.30
2018-10-09T06:15:15.524Z,10.40
2018-10-09T06:17:57.297Z,10.50
2018-10-09T06:20:38.536Z,10.60
2018-10-09T06:23:19.951Z,10.60
2018-10-09T06:26:01.323Z,10.70
2018-10-09T06:28:42.087Z,10.90
2018-10-09T06:31:23.496Z,11.00
2018-10-09T06:34:05.799Z,11.20
2018-10-09T06:36:46.790Z,11.40
2018-10-09T06:39:27.522Z,11.80
2018-10-09T06:42:08.323Z,12.30
2018-10-09T06:44:50.481Z,12.30
2018-10-09T06:47:31.932Z,12.20
2018-10-09T06:50:13.225Z,12.10
2018-10-09T06:52:54.383Z,12.40
2018-10-09T06:55:35.087Z,13.20
2018-10-09T06:58:15.644Z,14.30
2018-10-09T07:00:56.489Z,15.20
2018-10-09T07:03:38.548Z,15.70
2018-10-09T07:06:19.415Z,16.00
2018-10-09T07:09:00.375Z,16.50
2018-10-09T07:11:40.903Z,17.00
2018-10-09T07:14:22.391Z,17.50
2018-10-09T07:19:47.328Z,18.50
2018-10-09T07:22:28.291Z,19.60
2018-10-09T07:25:09.177Z,19.90
2018-10-09T07:27:49.808Z,19.50
2018-10-09T07:30:30.916Z,18.80
2018-10-09T07:33:12.136Z,18.70
2018-10-09T07:35:52.627Z,18.60
2018-10-09T07:38:33.128Z,19.00
2018-10-09T07:41:13.692Z,19.10
2018-10-09T07:43:54.509Z,19.10
2018-10-09T07:46:35.608Z,19.00
2018-10-09T07:49:16.231Z,18.30
2018-10-09T07:51:57.001Z,17.50
2018-10-09T07:54:37.738Z,17.00
2018-10-09T07:57:18.478Z,16.50
2018-10-09T07:59:59.405Z,16.30
2018-10-09T08:02:40.575Z,16.50
2018-10-09T08:05:21.415Z,17.10
2018-10-09T08:08:02.288Z,18.30
2018-10-09T08:10:43.423Z,20.20
2018-10-09T08:13:24.824Z,21.80
2018-10-09T08:16:05.825Z,23.40
2018-10-09T08:18:47.111Z,24.60
2018-10-09T08:21:28.217Z,24.70
2018-10-09T08:24:09.125Z,24.30
2018-10-09T08:26:50.227Z,24.10
2018-10-09T08:29:31.351Z,24.00
2018-10-09T08:32:12.477Z,23.60
2018-10-09T08:34:54.939Z,23.10
2018-10-09T08:37:38.736Z,22.90
2018-10-09T08:40:20.421Z,22.60
2018-10-09T08:43:01.880Z,22.40
2018-10-09T08:45:42.543Z,22.20
2018-10-09T08:48:23.296Z,22.20
2018-10-09T08:51:03.800Z,22.50
2018-10-09T08:53:44.433Z,22.80
2018-10-09T08:56:24.959Z,23.00
2018-10-09T08:59:05.679Z,23.60
2018-10-09T09:01:47.013Z,23.90
2018-10-09T09:04:27.850Z,24.60
2018-10-09T09:07:08.616Z,25.00
2018-10-09T09:09:49.369Z,25.40
2018-10-09T09:12:30.690Z,26.40
2018-10-09T09:15:11.592Z,25.90
2018-10-09T09:17:52.502Z,25.80
2018-10-09T09:20:33.182Z,26.30
2018-10-09T09:23:14.302Z,26.60
2018-10-09T09:25:54.978Z,26.80
2018-10-09T09:28:35.567Z,26.20
2018-10-09T09:31:16.552Z,25.10
2018-10-09T09:33:56.976Z,24.20
2018-10-09T09:36:37.815Z,23.20
2018-10-09T09:39:18.379Z,23.10
2018-10-09T09:41:59.216Z,23.50
2018-10-09T09:44:40.677Z,24.30
2018-10-09T09:47:21.263Z,24.30
2018-10-09T09:50:03.607Z,24.00
2018-10-09T09:52:44.362Z,24.00
2018-10-09T09:55:24.968Z,23.30
2018-10-09T09:58:06.241Z,23.20
2018-10-09T10:00:56.038Z,24.10
2018-10-09T10:03:37.740Z,24.90
2018-10-09T10:06:19.318Z,24.90
2018-10-09T10:09:00.351Z,25.90
2018-10-09T10:11:40.990Z,25.60
2018-10-09T10:14:21.527Z,25.00
2018-10-09T10:17:02.904Z,24.40
2018-10-09T10:19:44.005Z,24.30
2018-10-09T10:22:24.815Z,24.30
2018-10-09T10:25:05.860Z,24.40
2018-10-09T10:27:46.994Z,25.10
2018-10-09T10:30:28.419Z,25.60
2018-10-09T10:33:09.999Z,26.60
2018-10-09T10:35:51.257Z,27.80
2018-10-09T10:38:32.343Z,28.30
2018-10-09T10:41:13.275Z,29.00
2018-10-09T10:43:55.316Z,29.60
2018-10-09T10:46:38.558Z,29.50
2018-10-09T10:49:19.112Z,29.20
2018-10-09T10:52:00.274Z,30.00
2018-10-09T10:54:41.353Z,30.10
2018-10-09T10:57:22.139Z,29.40
2018-10-09T11:00:03.809Z,29.30
2018-10-09T11:02:44.235Z,29.90
2018-10-09T11:05:25.258Z,29.30
2018-10-09T11:08:06.870Z,30.10
2018-10-09T11:10:48.294Z,30.70
2018-10-09T11:13:29.393Z,30.80
2018-10-09T11:16:10.428Z,29.70
2018-10-09T11:18:51.235Z,29.40
2018-10-09T11:21:32.502Z,29.60
2018-10-09T11:24:12.996Z,30.30
2018-10-09T11:26:53.866Z,30.20
2018-10-09T11:29:34.239Z,30.30
2018-10-09T11:32:15.587Z,29.60
2018-10-09T11:34:56.141Z,28.80
2018-10-09T11:37:37.572Z,28.40
2018-10-09T11:40:19.748Z,27.90
2018-10-09T11:43:00.781Z,28.50
2018-10-09T11:45:42.104Z,29.60
2018-10-09T11:48:23.496Z,30.80
2018-10-09T11:51:04.754Z,30.60
2018-10-09T11:53:46.187Z,30.60
2018-10-09T11:56:26.692Z,31.40
2018-10-09T11:59:07.648Z,31.90
2018-10-09T12:01:48.351Z,31.90
2018-10-09T12:04:29.013Z,32.00
2018-10-09T12:07:10.310Z,32.60
2018-10-09T12:09:50.923Z,32.90
2018-10-09T12:12:32.662Z,33.10
2018-10-09T12:15:13.333Z,33.30
2018-10-09T12:17:54.208Z,33.30
2018-10-09T12:20:35.159Z,33.00
2018-10-09T12:23:17.057Z,32.40
2018-10-09T12:25:57.642Z,32.10
2018-10-09T12:28:38.123Z,32.10
2018-10-09T12:31:18.881Z,32.60
2018-10-09T12:33:59.765Z,32.70
2018-10-09T12:36:40.227Z,32.30
2018-10-09T12:39:20.786Z,32.10
2018-10-09T12:42:01.282Z,30.90
2018-10-09T12:44:41.753Z,30.00
2018-10-09T12:47:22.795Z,29.40
2018-10-09T12:50:04.108Z,29.80
2018-10-09T12:52:44.928Z,30.10
2018-10-09T12:55:26.325Z,30.00
2018-10-09T12:58:07.535Z,29.50
2018-10-09T13:00:48.003Z,29.10
2018-10-09T13:03:29.184Z,28.70
2018-10-09T13:06:10.223Z,28.80
2018-10-09T13:08:51.243Z,28.60
2018-10-09T13:11:32.502Z,28.20
2018-10-09T13:14:13.278Z,28.20
2018-10-09T13:16:54.407Z,28.60
2018-10-09T13:19:35.319Z,29.10
2018-10-09T13:22:16.411Z,29.50
2018-10-09T13:24:57.389Z,29.30
2018-10-09T13:27:39.015Z,29.20
2018-10-09T13:30:19.694Z,29.60
2018-10-09T13:33:00.122Z,30.00
2018-10-09T13:35:40.716Z,29.90
2018-10-09T13:38:21.275Z,29.90
2018-10-09T13:41:02.660Z,29.40
2018-10-09T13:43:43.551Z,28.90
2018-10-09T13:46:24.775Z,28.40
2018-10-09T13:49:06.498Z,28.00
2018-10-09T13:51:47.094Z,28.60
2018-10-09T13:54:27.561Z,29.40
2018-10-09T13:57:08.654Z,29.00
2018-10-09T13:59:49.263Z,28.50
2018-10-09T14:02:30.182Z,28.80
2018-10-09T14:05:10.861Z,29.00
2018-10-09T14:07:51.751Z,28.70
2018-10-09T14:10:32.687Z,28.50
2018-10-09T14:13:13.876Z,28.00
2018-10-09T14:15:54.486Z,28.00
2018-10-09T14:18:35.536Z,28.10
2018-10-09T14:21:16.764Z,28.20
2018-10-09T14:23:58.014Z,28.10
2018-10-09T14:26:39.513Z,28.00
2018-10-09T14:29:20.095Z,27.30
2018-10-09T14:32:01.142Z,26.80
2018-10-09T14:34:42.140Z,26.60
2018-10-09T14:37:23.379Z,26.00
2018-10-09T14:40:04.353Z,25.50
2018-10-09T14:42:45.164Z,25.60
2018-10-09T14:45:25.858Z,25.80
2018-10-09T14:48:06.627Z,26.00
2018-10-09T14:50:47.227Z,25.70
2018-10-09T14:53:27.919Z,25.60
2018-10-09T14:56:09.203Z,25.10
2018-10-09T14:58:50.481Z,24.80
2018-10-09T15:01:31.284Z,24.30
2018-10-09T15:04:12.518Z,23.90
2018-10-09T15:06:53.411Z,23.70
2018-10-09T15:09:34.434Z,23.40
2018-10-09T15:12:15.821Z,23.20
2018-10-09T15:14:56.639Z,23.00
2018-10-09T15:17:37.453Z,22.70
2018-10-09T15:20:18.057Z,22.40
2018-10-09T15:22:58.906Z,22.20
2018-10-09T15:25:39.806Z,22.00
2018-10-09T15:28:20.326Z,21.90
2018-10-09T15:31:01.459Z,21.70
2018-10-09T15:33:42.092Z,21.40
2018-10-09T15:36:22.571Z,21.40
2018-10-09T15:39:03.756Z,21.40
2018-10-09T15:41:45.259Z,21.30
2018-10-09T15:44:26.182Z,21.30
2018-10-09T15:47:07.455Z,21.20
2018-10-09T15:49:48.298Z,21.10
2018-10-09T15:52:28.805Z,20.90
2018-10-09T15:55:09.784Z,20.80
2018-10-09T15:57:50.358Z,20.60
2018-10-09T16:00:38.043Z,20.50
2018-10-09T16:03:19.186Z,20.30
2018-10-09T16:05:59.656Z,20.20
2018-10-09T16:08:40.428Z,20.00
2018-10-09T16:11:26.500Z,20.10
2018-10-09T16:14:07.747Z,19.90
2018-10-09T16:16:48.708Z,19.70
2018-10-09T16:19:29.359Z,19.70
2018-10-09T16:22:10.823Z,19.70
2018-10-09T16:24:51.787Z,19.60
2018-10-09T16:27:32.867Z,19.40
2018-10-09T16:30:13.944Z,19.10
2018-10-09T16:32:56.252Z,18.80
2018-10-09T16:35:37.995Z,18.70
2018-10-09T16:38:18.987Z,18.40
2018-10-09T16:40:59.953Z,18.20
2018-10-09T16:43:41.228Z,18.00
2018-10-09T16:46:22.494Z,17.90
2018-10-09T16:49:03.063Z,17.70
2018-10-09T16:51:44.714Z,17.60
2018-10-09T16:54:25.851Z,17.50
2018-10-09T16:57:07.392Z,17.40
2018-10-09T16:59:48.659Z,17.30
2018-10-09T17:02:29.857Z,17.20
2018-10-09T17:05:10.660Z,17.20
2018-10-09T17:07:51.759Z,17.10
2018-10-09T17:10:32.239Z,17.00
2018-10-09T17:13:13.095Z,16.90
2018-10-09T17:15:53.939Z,16.80
2018-10-09T17:18:34.654Z,16.70
2018-10-09T17:21:15.497Z,16.50
2018-10-09T17:23:56.454Z,16.50
2018-10-09T17:26:37.375Z,16.30
2018-10-09T17:29:18.423Z,16.20
2018-10-09T17:31:59.150Z,16.10
2018-10-09T17:34:39.618Z,16.00
2018-10-09T17:37:21.071Z,15.90
2018-10-09T17:40:02.242Z,15.90
2018-10-09T17:42:43.489Z,15.90
2018-10-09T17:45:24.479Z,15.80
2018-10-09T17:48:05.375Z,15.70
2018-10-09T17:50:46.245Z,15.60
2018-10-09T17:53:27.604Z,15.50
2018-10-09T17:56:08.465Z,15.50
2018-10-09T17:58:49.274Z,15.80
2018-10-09T18:01:30.192Z,16.00
2018-10-09T18:04:10.622Z,15.90
2018-10-09T18:06:52.287Z,15.90
2018-10-09T18:09:32.795Z,15.80
2018-10-09T18:12:13.996Z,15.90
2018-10-09T18:14:54.629Z,15.90
2018-10-09T18:17:35.547Z,15.70
2018-10-09T18:20:16.719Z,15.50
2018-10-09T18:22:58.294Z,15.30
2018-10-09T18:25:38.856Z,15.20
2018-10-09T18:28:19.833Z,15.10
2018-10-09T18:31:00.723Z,15.00
2018-10-09T18:33:41.508Z,14.90
2018-10-09T18:36:22.229Z,14.90
2018-10-09T18:39:02.996Z,14.80
2018-10-09T18:41:44.899Z,14.80
2018-10-09T18:44:26.865Z,14.80
2018-10-09T18:47:11.987Z,14.70
2018-10-09T18:49:52.616Z,14.70
2018-10-09T18:52:34.084Z,14.60
2018-10-09T18:55:16.326Z,14.60
2018-10-09T18:57:57.323Z,14.70
2018-10-09T19:00:37.858Z,14.70
2018-10-09T19:03:18.807Z,14.70
2018-10-09T19:05:59.883Z,14.60
2018-10-09T19:08:40.400Z,14.50
2018-10-09T19:11:24.932Z,14.30
2018-10-09T19:14:06.089Z,14.20
2018-10-09T19:16:46.925Z,14.20
2018-10-09T19:19:27.472Z,14.10
2018-10-09T19:22:08.324Z,14.00
2018-10-09T19:24:49.119Z,13.90
2018-10-09T19:27:29.762Z,13.80
2018-10-09T19:30:10.554Z,13.70
2018-10-09T19:32:54.546Z,13.60
2018-10-09T19:35:35.679Z,13.60
2018-10-09T19:38:16.666Z,13.50
2018-10-09T19:40:57.074Z,13.50
2018-10-09T19:43:38.556Z,13.50
2018-10-09T19:46:19.122Z,13.50
2018-10-09T19:49:00.241Z,13.40
2018-10-09T19:51:40.741Z,13.30
2018-10-09T19:54:21.697Z,13.30
2018-10-09T19:57:02.410Z,13.40
2018-10-09T19:59:43.062Z,13.50
2018-10-09T20:02:23.815Z,13.40
2018-10-09T20:05:05.243Z,13.40
2018-10-09T20:07:47.188Z,13.30
2018-10-09T20:10:28.177Z,13.20
2018-10-09T20:13:09.426Z,13.20
2018-10-09T20:15:50.399Z,13.10
2018-10-09T20:18:31.665Z,13.00
2018-10-09T20:21:12.587Z,12.90
2018-10-09T20:23:53.491Z,12.80
2018-10-09T20:26:34.360Z,12.80
2018-10-09T20:29:14.731Z,12.70
2018-10-09T20:31:55.418Z,12.60
2018-10-09T20:34:37.311Z,12.60
2018-10-09T20:37:18.424Z,12.60
2018-10-09T20:39:59.140Z,12.50
2018-10-09T20:42:39.944Z,12.50
2018-10-09T20:45:20.815Z,12.50
2018-10-09T20:48:02.162Z,12.50
2018-10-09T20:50:43.036Z,12.50
2018-10-09T20:53:23.602Z,12.50
2018-10-09T20:56:04.490Z,12.50
2018-10-09T20:58:45.021Z,12.50
2018-10-09T21:01:25.553Z,12.50
2018-10-09T21:04:06.577Z,12.50
2018-10-09T21:06:47.712Z,12.50
2018-10-09T21:09:28.276Z,12.40
2018-10-09T21:12:09.224Z,12.30
2018-10-09T21:14:50.183Z,12.20
2018-10-09T21:17:31.347Z,12.20
2018-10-09T21:20:12.486Z,12.10
2018-10-09T21:22:53.706Z,12.10
2018-10-09T21:25:34.824Z,12.00
2018-10-09T21:28:15.927Z,12.00
2018-10-09T21:30:56.762Z,11.90
2018-10-09T21:33:37.570Z,11.90
2018-10-09T21:36:18.464Z,11.90
2018-10-09T21:38:59.292Z,11.90
2018-10-09T21:41:40.191Z,11.80
2018-10-09T21:44:21.381Z,11.80
2018-10-09T21:47:03.358Z,11.70
2018-10-09T21:49:44.172Z,11.70
2018-10-09T21:52:25.467Z,11.60
2018-10-09T21:55:06.432Z,11.60
2018-10-09T21:57:47.312Z,11.70
2018-10-09T22:00:28.671Z,11.60
2018-10-09T22:03:09.534Z,11.60
2018-10-09T22:05:50.441Z,11.50
2018-10-09T22:08:31.621Z,11.50
2018-10-09T22:11:14.173Z,11.40
2018-10-09T22:13:54.834Z,11.40
2018-10-09T22:16:35.706Z,11.40
2018-10-09T22:19:16.071Z,11.40
2018-10-09T22:21:56.761Z,11.50
2018-10-09T22:24:38.201Z,11.40
2018-10-09T22:27:19.261Z,11.30
2018-10-09T22:30:00.198Z,11.30
2018-10-09T22:32:41.105Z,11.10
2018-10-09T22:35:22.361Z,11.10
2018-10-09T22:38:03.302Z,11.10
2018-10-09T22:40:44.730Z,11.20
2018-10-09T22:43:26.020Z,11.30
2018-10-09T22:46:07.187Z,11.30
2018-10-09T22:48:48.976Z,11.20
2018-10-09T22:51:30.687Z,11.10
2018-10-09T22:54:13.761Z,11.00
2018-10-09T22:56:54.849Z,11.00
2018-10-09T22:59:36.044Z,10.90
2018-10-09T23:02:17.060Z,10.90
2018-10-09T23:04:57.811Z,11.00
2018-10-09T23:07:40.154Z,11.10
2018-10-09T23:10:21.374Z,11.10
2018-10-09T23:13:02.391Z,11.00
2018-10-09T23:15:43.931Z,11.00
2018-10-09T23:18:25.647Z,10.90
2018-10-09T23:21:07.231Z,10.90
2018-10-09T23:23:47.993Z,10.80
2018-10-09T23:26:29.316Z,10.80
2018-10-09T23:29:10.119Z,10.70
2018-10-09T23:31:50.962Z,10.70
2018-10-09T23:34:31.972Z,10.60
2018-10-09T23:37:13.341Z,10.60
2018-10-09T23:39:54.097Z,10.60
2018-10-09T23:42:35.246Z,10.60
2018-10-09T23:45:16.413Z,10.50
2018-10-09T23:48:04.914Z,10.40
2018-10-09T23:50:46.214Z,10.40
2018-10-09T23:53:26.815Z,10.40
2018-10-09T23:56:07.564Z,10.30
2018-10-09T23:58:48.739Z,10.30
